sensor_id;sensor_type;location;lat;lon;timestamp;pressure;altitude;pressure_sealevel;temperature;humidity
68107;BME280;54892;47.488;19.026;2023-05-19T00:02:44;100657.25;;;13.28;98.62
68107;BME280;54892;47.488;19.026;2023-05-19T00:05:48;100655.66;;;13.27;97.22
68107;BME280;54892;47.488;19.026;2023-05-19T00:08:56;100648.44;;;13.17;96.85
68107;BME280;54892;47.488;19.026;2023-05-19T00:12:00;100654.25;;;13.14;96.98
68107;BME280;54892;47.488;19.026;2023-05-19T00:15:05;100654.19;;;13.09;96.87
68107;BME280;54892;47.488;19.026;2023-05-19T00:18:10;100653.13;;;13.05;95.09
68107;BME280;54892;47.488;19.026;2023-05-19T00:21:14;100649.88;;;12.98;95.61
68107;BME280;54892;47.488;19.026;2023-05-19T00:24:18;100657.78;;;12.92;96.42
68107;BME280;54892;47.488;19.026;2023-05-19T00:27:21;100659.44;;;12.99;96.58
68107;BME280;54892;47.488;19.026;2023-05-19T00:30:25;100649.84;;;12.92;96.85
68107;BME280;54892;47.488;19.026;2023-05-19T00:33:29;100660.50;;;12.98;96.69
68107;BME280;54892;47.488;19.026;2023-05-19T00:36:34;100649.06;;;12.92;96.55
68107;BME280;54892;47.488;19.026;2023-05-19T00:39:37;100641.06;;;12.87;98.12
68107;BME280;54892;47.488;19.026;2023-05-19T00:42:41;100636.87;;;12.91;97.88
68107;BME280;54892;47.488;19.026;2023-05-19T00:45:44;100637.59;;;12.81;98.30
68107;BME280;54892;47.488;19.026;2023-05-19T00:48:49;100644.47;;;12.82;98.40
68107;BME280;54892;47.488;19.026;2023-05-19T00:51:52;100639.12;;;12.77;97.92
68107;BME280;54892;47.488;19.026;2023-05-19T00:54:56;100634.91;;;12.76;97.57
68107;BME280;54892;47.488;19.026;2023-05-19T00:57:59;100636.72;;;12.70;97.17
68107;BME280;54892;47.488;19.026;2023-05-19T01:01:03;100636.97;;;12.69;97.09
68107;BME280;54892;47.488;19.026;2023-05-19T01:04:09;100645.69;;;12.69;97.23
68107;BME280;54892;47.488;19.026;2023-05-19T01:07:18;100642.22;;;12.63;96.66
68107;BME280;54892;47.488;19.026;2023-05-19T01:10:22;100637.75;;;12.64;97.06
68107;BME280;54892;47.488;19.026;2023-05-19T01:13:25;100627.69;;;12.66;96.88
68107;BME280;54892;47.488;19.026;2023-05-19T01:16:32;100633.78;;;12.67;96.31
68107;BME280;54892;47.488;19.026;2023-05-19T01:19:51;100632.66;;;12.57;96.84
68107;BME280;54892;47.488;19.026;2023-05-19T01:23:11;100640.00;;;12.50;97.22
68107;BME280;54892;47.488;19.026;2023-05-19T01:26:37;100634.13;;;12.43;98.25
68107;BME280;54892;47.488;19.026;2023-05-19T01:30:17;100640.41;;;12.37;98.92
68107;BME280;54892;47.488;19.026;2023-05-19T01:33:25;100640.97;;;12.39;99.37
68107;BME280;54892;47.488;19.026;2023-05-19T01:36:31;100643.66;;;12.44;99.22
68107;BME280;54892;47.488;19.026;2023-05-19T01:39:36;100640.47;;;12.42;99.28
68107;BME280;54892;47.488;19.026;2023-05-19T01:42:39;100632.06;;;12.50;99.15
68107;BME280;54892;47.488;19.026;2023-05-19T01:45:44;100640.81;;;12.51;99.40
68107;BME280;54892;47.488;19.026;2023-05-19T01:48:48;100638.94;;;12.51;99.82
68107;BME280;54892;47.488;19.026;2023-05-19T01:51:52;100642.91;;;12.48;100.00
68107;BME280;54892;47.488;19.026;2023-05-19T01:54:56;100633.66;;;12.51;100.00
68107;BME280;54892;47.488;19.026;2023-05-19T01:58:05;100622.28;;;12.51;100.00
68107;BME280;54892;47.488;19.026;2023-05-19T02:01:19;100623.66;;;12.58;100.00
68107;BME280;54892;47.488;19.026;2023-05-19T02:04:32;100627.34;;;12.57;100.00
68107;BME280;54892;47.488;19.026;2023-05-19T02:07:43;100631.84;;;12.57;100.00
68107;BME280;54892;47.488;19.026;2023-05-19T02:10:54;100634.69;;;12.50;100.00
68107;BME280;54892;47.488;19.026;2023-05-19T02:14:02;100634.63;;;12.40;100.00
68107;BME280;54892;47.488;19.026;2023-05-19T02:17:06;100633.06;;;12.44;100.00
68107;BME280;54892;47.488;19.026;2023-05-19T02:20:11;100632.25;;;12.43;100.00
68107;BME280;54892;47.488;19.026;2023-05-19T02:23:14;100640.41;;;12.37;100.00
68107;BME280;54892;47.488;19.026;2023-05-19T02:26:17;100639.28;;;12.27;100.00
68107;BME280;54892;47.488;19.026;2023-05-19T02:29:21;100637.50;;;12.38;100.00
68107;BME280;54892;47.488;19.026;2023-05-19T02:32:26;100636.44;;;12.34;100.00
68107;BME280;54892;47.488;19.026;2023-05-19T02:35:29;100632.97;;;12.33;100.00
68107;BME280;54892;47.488;19.026;2023-05-19T02:38:33;100633.47;;;12.30;100.00
68107;BME280;54892;47.488;19.026;2023-05-19T02:41:37;100640.91;;;12.33;100.00
68107;BME280;54892;47.488;19.026;2023-05-19T02:44:40;100631.38;;;12.32;100.00
68107;BME280;54892;47.488;19.026;2023-05-19T02:47:45;100634.28;;;12.31;100.00
68107;BME280;54892;47.488;19.026;2023-05-19T02:50:48;100634.84;;;12.38;100.00
68107;BME280;54892;47.488;19.026;2023-05-19T02:53:51;100623.47;;;12.38;100.00
68107;BME280;54892;47.488;19.026;2023-05-19T02:56:55;100621.03;;;12.31;100.00
68107;BME280;54892;47.488;19.026;2023-05-19T02:59:58;100627.31;;;12.25;100.00
68107;BME280;54892;47.488;19.026;2023-05-19T03:03:03;100623.84;;;12.19;100.00
68107;BME280;54892;47.488;19.026;2023-05-19T03:06:06;100625.56;;;12.36;100.00
68107;BME280;54892;47.488;19.026;2023-05-19T03:09:10;100640.97;;;12.39;100.00
68107;BME280;54892;47.488;19.026;2023-05-19T03:12:14;100639.63;;;12.36;100.00
68107;BME280;54892;47.488;19.026;2023-05-19T03:15:17;100637.75;;;12.37;100.00
68107;BME280;54892;47.488;19.026;2023-05-19T03:18:24;100634.56;;;12.34;100.00
68107;BME280;54892;47.488;19.026;2023-05-19T03:21:27;100633.81;;;12.39;100.00
68107;BME280;54892;47.488;19.026;2023-05-19T03:24:32;100644.37;;;12.34;100.00
68107;BME280;54892;47.488;19.026;2023-05-19T03:27:36;100640.34;;;12.31;100.00
68107;BME280;54892;47.488;19.026;2023-05-19T03:30:39;100650.94;;;12.59;100.00
68107;BME280;54892;47.488;19.026;2023-05-19T03:33:44;100652.78;;;12.58;100.00
68107;BME280;54892;47.488;19.026;2023-05-19T03:36:47;100645.12;;;12.62;100.00
68107;BME280;54892;47.488;19.026;2023-05-19T03:39:51;100646.81;;;12.41;100.00
68107;BME280;54892;47.488;19.026;2023-05-19T03:42:55;100638.81;;;12.36;100.00
68107;BME280;54892;47.488;19.026;2023-05-19T03:45:58;100642.78;;;12.33;100.00
68107;BME280;54892;47.488;19.026;2023-05-19T03:49:02;100644.91;;;12.36;100.00
68107;BME280;54892;47.488;19.026;2023-05-19T03:52:06;100641.75;;;12.39;100.00
68107;BME280;54892;47.488;19.026;2023-05-19T03:55:10;100649.53;;;12.51;100.00
68107;BME280;54892;47.488;19.026;2023-05-19T03:58:15;100643.13;;;12.47;100.00
68107;BME280;54892;47.488;19.026;2023-05-19T04:01:18;100645.56;;;12.48;100.00
68107;BME280;54892;47.488;19.026;2023-05-19T04:04:23;100638.66;;;12.47;100.00
68107;BME280;54892;47.488;19.026;2023-05-19T04:07:27;100649.81;;;12.49;100.00
68107;BME280;54892;47.488;19.026;2023-05-19T04:10:31;100652.94;;;12.46;100.00
68107;BME280;54892;47.488;19.026;2023-05-19T04:13:34;100653.00;;;12.52;100.00
68107;BME280;54892;47.488;19.026;2023-05-19T04:16:37;100647.94;;;12.50;100.00
68107;BME280;54892;47.488;19.026;2023-05-19T04:19:42;100648.00;;;12.55;100.00
68107;BME280;54892;47.488;19.026;2023-05-19T04:22:46;100657.63;;;12.67;100.00
68107;BME280;54892;47.488;19.026;2023-05-19T04:25:49;100664.78;;;12.71;100.00
68107;BME280;54892;47.488;19.026;2023-05-19T04:28:53;100667.00;;;12.79;100.00
68107;BME280;54892;47.488;19.026;2023-05-19T04:31:57;100662.97;;;12.77;100.00
68107;BME280;54892;47.488;19.026;2023-05-19T04:35:03;100658.34;;;12.89;99.81
68107;BME280;54892;47.488;19.026;2023-05-19T04:38:06;100663.41;;;13.01;99.04
68107;BME280;54892;47.488;19.026;2023-05-19T04:41:10;100667.66;;;13.02;98.64
68107;BME280;54892;47.488;19.026;2023-05-19T04:44:14;100664.78;;;13.04;99.22
68107;BME280;54892;47.488;19.026;2023-05-19T04:47:19;100676.22;;;13.09;98.98
68107;BME280;54892;47.488;19.026;2023-05-19T04:50:24;100680.75;;;13.14;98.10
68107;BME280;54892;47.488;19.026;2023-05-19T04:53:29;100679.69;;;13.15;98.46
68107;BME280;54892;47.488;19.026;2023-05-19T04:56:32;100680.91;;;13.40;96.49
68107;BME280;54892;47.488;19.026;2023-05-19T04:59:36;100680.84;;;13.30;97.12
68107;BME280;54892;47.488;19.026;2023-05-19T05:02:39;100685.16;;;13.41;97.60
68107;BME280;54892;47.488;19.026;2023-05-19T05:05:45;100684.22;;;13.63;96.79
68107;BME280;54892;47.488;19.026;2023-05-19T05:08:48;100685.59;;;13.70;94.70
68107;BME280;54892;47.488;19.026;2023-05-19T05:11:53;100687.25;;;13.87;93.97
68107;BME280;54892;47.488;19.026;2023-05-19T05:14:57;100692.81;;;13.85;94.21
68107;BME280;54892;47.488;19.026;2023-05-19T05:18:01;100690.16;;;13.91;93.97
68107;BME280;54892;47.488;19.026;2023-05-19T05:21:08;100691.28;;;14.00;94.46
68107;BME280;54892;47.488;19.026;2023-05-19T05:24:13;100688.91;;;14.14;94.53
68107;BME280;54892;47.488;19.026;2023-05-19T05:27:19;100695.31;;;14.28;93.29
68107;BME280;54892;47.488;19.026;2023-05-19T05:30:22;100698.31;;;15.15;93.17
68107;BME280;54892;47.488;19.026;2023-05-19T05:33:26;100694.34;;;16.04;92.15
68107;BME280;54892;47.488;19.026;2023-05-19T05:36:31;100698.00;;;16.58;87.20
68107;BME280;54892;47.488;19.026;2023-05-19T05:39:36;100695.84;;;16.95;83.17
68107;BME280;54892;47.488;19.026;2023-05-19T05:42:39;100700.03;;;16.26;80.61
68107;BME280;54892;47.488;19.026;2023-05-19T05:45:42;100690.69;;;15.74;84.26
68107;BME280;54892;47.488;19.026;2023-05-19T05:48:46;100697.41;;;15.50;84.12
68107;BME280;54892;47.488;19.026;2023-05-19T05:51:51;100693.72;;;15.36;85.56
68107;BME280;54892;47.488;19.026;2023-05-19T05:55:07;100694.56;;;15.36;86.08
68107;BME280;54892;47.488;19.026;2023-05-19T05:58:10;100704.66;;;15.40;85.97
68107;BME280;54892;47.488;19.026;2023-05-19T06:01:15;100702.00;;;15.40;85.62
68107;BME280;54892;47.488;19.026;2023-05-19T06:04:18;100699.62;;;15.33;86.18
68107;BME280;54892;47.488;19.026;2023-05-19T06:07:24;100704.38;;;15.36;87.00
68107;BME280;54892;47.488;19.026;2023-05-19T06:10:27;100703.59;;;15.41;86.49
68107;BME280;54892;47.488;19.026;2023-05-19T06:13:30;100711.53;;;15.56;86.15
68107;BME280;54892;47.488;19.026;2023-05-19T06:16:34;100711.47;;;15.66;85.38
68107;BME280;54892;47.488;19.026;2023-05-19T06:19:37;100706.66;;;15.79;85.35
68107;BME280;54892;47.488;19.026;2023-05-19T06:22:42;100709.56;;;15.82;84.40
68107;BME280;54892;47.488;19.026;2023-05-19T06:25:46;100712.75;;;15.84;85.22
68107;BME280;54892;47.488;19.026;2023-05-19T06:28:49;100719.44;;;15.87;84.30
68107;BME280;54892;47.488;19.026;2023-05-19T06:31:53;100723.06;;;16.07;84.19
68107;BME280;54892;47.488;19.026;2023-05-19T06:34:57;100723.09;;;15.96;83.33
68107;BME280;54892;47.488;19.026;2023-05-19T06:38:02;100721.78;;;15.94;84.39
68107;BME280;54892;47.488;19.026;2023-05-19T06:41:05;100735.81;;;16.10;83.41
68107;BME280;54892;47.488;19.026;2023-05-19T06:44:09;100729.66;;;16.14;82.29
68107;BME280;54892;47.488;19.026;2023-05-19T06:47:12;100740.09;;;16.11;83.36
68107;BME280;54892;47.488;19.026;2023-05-19T06:50:16;100742.19;;;16.19;81.95
68107;BME280;54892;47.488;19.026;2023-05-19T06:53:20;100749.91;;;16.16;83.28
68107;BME280;54892;47.488;19.026;2023-05-19T06:56:24;100745.34;;;16.26;82.03
68107;BME280;54892;47.488;19.026;2023-05-19T06:59:27;100748.66;;;16.53;82.45
68107;BME280;54892;47.488;19.026;2023-05-19T07:02:30;100747.84;;;16.52;80.33
68107;BME280;54892;47.488;19.026;2023-05-19T07:05:34;100750.97;;;16.65;80.30
68107;BME280;54892;47.488;19.026;2023-05-19T07:08:38;100751.44;;;17.12;77.24
68107;BME280;54892;47.488;19.026;2023-05-19T07:11:42;100754.75;;;17.28;76.97
68107;BME280;54892;47.488;19.026;2023-05-19T07:14:45;100748.97;;;17.45;77.11
68107;BME280;54892;47.488;19.026;2023-05-19T07:17:48;100740.84;;;17.79;74.37
68107;BME280;54892;47.488;19.026;2023-05-19T07:20:52;100749.50;;;17.71;73.56
68107;BME280;54892;47.488;19.026;2023-05-19T07:23:57;100752.44;;;17.94;73.91
68107;BME280;54892;47.488;19.026;2023-05-19T07:27:01;100743.91;;;17.92;74.05
68107;BME280;54892;47.488;19.026;2023-05-19T07:30:06;100736.59;;;18.60;73.16
68107;BME280;54892;47.488;19.026;2023-05-19T07:33:10;100733.25;;;19.76;70.00
68107;BME280;54892;47.488;19.026;2023-05-19T07:36:13;100733.31;;;20.95;63.65
68107;BME280;54892;47.488;19.026;2023-05-19T07:39:18;100730.25;;;22.18;58.21
68107;BME280;54892;47.488;19.026;2023-05-19T07:42:22;100736.22;;;22.94;55.51
68107;BME280;54892;47.488;19.026;2023-05-19T07:45:25;100738.13;;;23.41;55.28
68107;BME280;54892;47.488;19.026;2023-05-19T07:48:28;100728.59;;;23.44;55.85
68107;BME280;54892;47.488;19.026;2023-05-19T07:51:31;100737.19;;;23.67;54.36
68107;BME280;54892;47.488;19.026;2023-05-19T07:54:36;100728.25;;;24.26;52.84
68107;BME280;54892;47.488;19.026;2023-05-19T07:57:40;100718.31;;;23.67;53.58
68107;BME280;54892;47.488;19.026;2023-05-19T08:00:43;100721.75;;;23.07;55.10
68107;BME280;54892;47.488;19.026;2023-05-19T08:03:47;100721.56;;;22.21;57.06
68107;BME280;54892;47.488;19.026;2023-05-19T08:06:51;100719.69;;;21.55;58.94
68107;BME280;54892;47.488;19.026;2023-05-19T08:09:55;100711.59;;;21.06;62.14
68107;BME280;54892;47.488;19.026;2023-05-19T08:12:59;100723.03;;;20.66;62.01
68107;BME280;54892;47.488;19.026;2023-05-19T08:16:02;100705.88;;;19.93;65.46
68107;BME280;54892;47.488;19.026;2023-05-19T08:19:06;100710.34;;;19.56;67.28
68107;BME280;54892;47.488;19.026;2023-05-19T08:22:10;100714.50;;;19.35;66.43
68107;BME280;54892;47.488;19.026;2023-05-19T08:25:15;100709.25;;;19.15;67.11
68107;BME280;54892;47.488;19.026;2023-05-19T08:28:18;100714.16;;;18.94;68.55
68107;BME280;54892;47.488;19.026;2023-05-19T08:31:21;100714.94;;;18.95;68.23
68107;BME280;54892;47.488;19.026;2023-05-19T08:34:26;100713.31;;;18.94;68.92
68107;BME280;54892;47.488;19.026;2023-05-19T08:37:29;100710.44;;;18.90;68.29
68107;BME280;54892;47.488;19.026;2023-05-19T08:40:36;100710.97;;;18.92;68.29
68107;BME280;54892;47.488;19.026;2023-05-19T08:43:43;100701.19;;;19.01;67.01
68107;BME280;54892;47.488;19.026;2023-05-19T08:46:46;100706.84;;;19.00;67.00
68107;BME280;54892;47.488;19.026;2023-05-19T08:49:52;100708.75;;;18.99;67.46
68107;BME280;54892;47.488;19.026;2023-05-19T08:53:03;100715.75;;;19.09;68.23
68107;BME280;54892;47.488;19.026;2023-05-19T08:56:17;100705.28;;;19.13;66.00
68107;BME280;54892;47.488;19.026;2023-05-19T08:59:23;100704.50;;;19.26;66.64
68107;BME280;54892;47.488;19.026;2023-05-19T09:02:26;100699.72;;;19.09;67.22
68107;BME280;54892;47.488;19.026;2023-05-19T09:05:30;100705.44;;;19.02;66.97
68107;BME280;54892;47.488;19.026;2023-05-19T09:08:34;100698.34;;;19.12;67.99
68107;BME280;54892;47.488;19.026;2023-05-19T09:11:39;100698.94;;;19.37;67.98
68107;BME280;54892;47.488;19.026;2023-05-19T09:14:43;100701.53;;;19.56;66.72
68107;BME280;54892;47.488;19.026;2023-05-19T09:17:47;100704.50;;;19.40;67.42
68107;BME280;54892;47.488;19.026;2023-05-19T09:20:50;100705.50;;;19.30;68.32
68107;BME280;54892;47.488;19.026;2023-05-19T09:24:03;100706.09;;;19.27;70.55
68107;BME280;54892;47.488;19.026;2023-05-19T09:27:09;100701.91;;;19.21;69.31
68107;BME280;54892;47.488;19.026;2023-05-19T09:30:16;100705.28;;;19.13;69.07
68107;BME280;54892;47.488;19.026;2023-05-19T09:33:20;100706.50;;;19.21;66.38
68107;BME280;54892;47.488;19.026;2023-05-19T09:36:24;100699.62;;;19.14;66.71
68107;BME280;54892;47.488;19.026;2023-05-19T09:39:28;100696.75;;;19.11;68.65
68107;BME280;54892;47.488;19.026;2023-05-19T09:42:36;100689.00;;;19.09;66.03
68107;BME280;54892;47.488;19.026;2023-05-19T09:45:40;100700.50;;;18.96;66.64
68107;BME280;54892;47.488;19.026;2023-05-19T09:48:43;100690.31;;;19.12;68.27
68107;BME280;54892;47.488;19.026;2023-05-19T09:51:48;100692.22;;;19.53;67.85
68107;BME280;54892;47.488;19.026;2023-05-19T09:54:52;100685.19;;;19.57;66.27
68107;BME280;54892;47.488;19.026;2023-05-19T09:57:58;100680.97;;;19.79;63.83
68107;BME280;54892;47.488;19.026;2023-05-19T10:01:05;100680.59;;;19.72;61.71
68107;BME280;54892;47.488;19.026;2023-05-19T10:04:09;100674.72;;;19.84;61.06
68107;BME280;54892;47.488;19.026;2023-05-19T10:07:14;100672.94;;;19.93;65.27
68107;BME280;54892;47.488;19.026;2023-05-19T10:10:19;100671.94;;;20.03;63.04
68107;BME280;54892;47.488;19.026;2023-05-19T10:13:24;100658.34;;;20.22;60.68
68107;BME280;54892;47.488;19.026;2023-05-19T10:16:29;100661.47;;;20.15;63.72
68107;BME280;54892;47.488;19.026;2023-05-19T10:19:35;100657.28;;;20.46;63.31
68107;BME280;54892;47.488;19.026;2023-05-19T10:22:39;100652.50;;;20.43;61.16
68107;BME280;54892;47.488;19.026;2023-05-19T10:25:43;100664.31;;;20.64;62.56
68107;BME280;54892;47.488;19.026;2023-05-19T10:28:49;100657.56;;;20.67;62.90
68107;BME280;54892;47.488;19.026;2023-05-19T10:31:55;100658.00;;;20.60;62.35
68107;BME280;54892;47.488;19.026;2023-05-19T10:35:20;100663.63;;;20.59;60.37
68107;BME280;54892;47.488;19.026;2023-05-19T10:38:32;100656.19;;;20.47;61.78
68107;BME280;54892;47.488;19.026;2023-05-19T10:41:40;100665.00;;;20.47;63.02
68107;BME280;54892;47.488;19.026;2023-05-19T10:44:57;100661.41;;;20.52;60.66
68107;BME280;54892;47.488;19.026;2023-05-19T10:48:04;100655.06;;;20.48;59.60
68107;BME280;54892;47.488;19.026;2023-05-19T10:51:13;100651.09;;;20.68;61.91
68107;BME280;54892;47.488;19.026;2023-05-19T10:54:17;100649.69;;;20.71;58.62
68107;BME280;54892;47.488;19.026;2023-05-19T10:57:52;100647.91;;;20.66;58.17
68107;BME280;54892;47.488;19.026;2023-05-19T11:01:00;100647.59;;;20.67;60.42
68107;BME280;54892;47.488;19.026;2023-05-19T11:04:05;100639.28;;;20.46;59.08
68107;BME280;54892;47.488;19.026;2023-05-19T11:07:08;100643.16;;;20.40;59.42
68107;BME280;54892;47.488;19.026;2023-05-19T11:10:12;100642.94;;;20.50;58.69
68107;BME280;54892;47.488;19.026;2023-05-19T11:13:19;100632.44;;;20.63;59.68
68107;BME280;54892;47.488;19.026;2023-05-19T11:16:30;100631.66;;;20.71;58.62
68107;BME280;54892;47.488;19.026;2023-05-19T11:19:34;100625.44;;;20.76;60.42
68107;BME280;54892;47.488;19.026;2023-05-19T11:22:38;100622.69;;;20.67;57.96
68107;BME280;54892;47.488;19.026;2023-05-19T11:25:43;100623.13;;;20.92;60.61
68107;BME280;54892;47.488;19.026;2023-05-19T11:28:47;100629.91;;;20.89;58.95
68107;BME280;54892;47.488;19.026;2023-05-19T11:31:53;100621.88;;;20.89;59.79
68107;BME280;54892;47.488;19.026;2023-05-19T11:34:57;100619.38;;;21.02;59.47
68107;BME280;54892;47.488;19.026;2023-05-19T11:38:01;100622.69;;;20.98;57.81
68107;BME280;54892;47.488;19.026;2023-05-19T11:41:05;100629.50;;;21.05;58.07
68107;BME280;54892;47.488;19.026;2023-05-19T11:44:09;100621.00;;;21.11;57.57
68107;BME280;54892;47.488;19.026;2023-05-19T11:47:15;100623.22;;;21.18;59.10
68107;BME280;54892;47.488;19.026;2023-05-19T11:50:18;100624.00;;;21.19;57.55
68107;BME280;54892;47.488;19.026;2023-05-19T11:53:22;100619.13;;;21.21;57.30
68107;BME280;54892;47.488;19.026;2023-05-19T11:56:25;100629.09;;;21.29;58.21
68107;BME280;54892;47.488;19.026;2023-05-19T11:59:30;100625.44;;;21.25;57.07
68107;BME280;54892;47.488;19.026;2023-05-19T12:02:36;100622.47;;;21.35;55.93
68107;BME280;54892;47.488;19.026;2023-05-19T12:05:43;100618.88;;;21.40;57.92
68107;BME280;54892;47.488;19.026;2023-05-19T12:08:47;100621.78;;;21.61;56.50
68107;BME280;54892;47.488;19.026;2023-05-19T12:11:53;100611.59;;;21.49;56.35
68107;BME280;54892;47.488;19.026;2023-05-19T12:14:57;100606.87;;;21.55;55.55
68107;BME280;54892;47.488;19.026;2023-05-19T12:18:06;100603.37;;;21.37;58.26
68107;BME280;54892;47.488;19.026;2023-05-19T12:21:09;100601.31;;;21.34;58.19
68107;BME280;54892;47.488;19.026;2023-05-19T12:24:15;100598.97;;;21.41;56.84
68107;BME280;54892;47.488;19.026;2023-05-19T12:27:21;100597.22;;;21.54;54.63
68107;BME280;54892;47.488;19.026;2023-05-19T12:30:27;100586.94;;;21.47;55.79
68107;BME280;54892;47.488;19.026;2023-05-19T12:33:33;100588.22;;;21.58;55.51
68107;BME280;54892;47.488;19.026;2023-05-19T12:36:36;100584.41;;;21.51;55.69
68107;BME280;54892;47.488;19.026;2023-05-19T12:39:42;100574.00;;;21.49;56.48
68107;BME280;54892;47.488;19.026;2023-05-19T12:42:46;100568.31;;;21.59;55.31
68107;BME280;54892;47.488;19.026;2023-05-19T12:45:51;100566.56;;;21.55;55.68
68107;BME280;54892;47.488;19.026;2023-05-19T12:48:58;100572.09;;;21.58;55.94
68107;BME280;54892;47.488;19.026;2023-05-19T12:52:03;100561.88;;;21.69;55.76
68107;BME280;54892;47.488;19.026;2023-05-19T12:55:10;100565.84;;;21.72;56.07
68107;BME280;54892;47.488;19.026;2023-05-19T12:58:15;100559.66;;;21.71;56.85
68107;BME280;54892;47.488;19.026;2023-05-19T13:01:18;100562.66;;;21.79;56.51
68107;BME280;54892;47.488;19.026;2023-05-19T13:04:23;100556.50;;;21.69;55.87
68107;BME280;54892;47.488;19.026;2023-05-19T13:07:26;100561.88;;;21.78;58.16
68107;BME280;54892;47.488;19.026;2023-05-19T13:10:32;100553.81;;;21.87;58.36
68107;BME280;54892;47.488;19.026;2023-05-19T13:13:36;100550.00;;;21.97;56.11
68107;BME280;54892;47.488;19.026;2023-05-19T13:16:39;100540.03;;;21.97;56.33
68107;BME280;54892;47.488;19.026;2023-05-19T13:19:43;100541.59;;;21.98;57.44
68107;BME280;54892;47.488;19.026;2023-05-19T13:22:47;100543.50;;;21.98;55.56
68107;BME280;54892;47.488;19.026;2023-05-19T13:25:51;100545.75;;;21.87;55.55
68107;BME280;54892;47.488;19.026;2023-05-19T13:28:55;100540.84;;;21.71;56.72
68107;BME280;54892;47.488;19.026;2023-05-19T13:31:58;100538.78;;;21.68;56.75
68107;BME280;54892;47.488;19.026;2023-05-19T13:35:04;100536.25;;;21.81;56.50
68107;BME280;54892;47.488;19.026;2023-05-19T13:38:09;100524.25;;;21.87;56.24
68107;BME280;54892;47.488;19.026;2023-05-19T13:41:12;100525.16;;;22.09;56.39
68107;BME280;54892;47.488;19.026;2023-05-19T13:44:16;100501.44;;;22.11;55.49
68107;BME280;54892;47.488;19.026;2023-05-19T13:47:21;100510.59;;;22.10;55.32
68107;BME280;54892;47.488;19.026;2023-05-19T13:50:26;100510.12;;;22.08;56.71
68107;BME280;54892;47.488;19.026;2023-05-19T13:53:29;100508.22;;;22.08;56.37
68107;BME280;54892;47.488;19.026;2023-05-19T13:56:33;100511.75;;;21.91;56.44
68107;BME280;54892;47.488;19.026;2023-05-19T13:59:37;100512.72;;;21.86;56.40
68107;BME280;54892;47.488;19.026;2023-05-19T14:02:46;100511.63;;;21.70;57.38
68107;BME280;54892;47.488;19.026;2023-05-19T14:05:51;100509.25;;;21.68;56.05
68107;BME280;54892;47.488;19.026;2023-05-19T14:08:55;100503.84;;;21.51;57.52
68107;BME280;54892;47.488;19.026;2023-05-19T14:11:58;100510.06;;;21.60;57.43
68107;BME280;54892;47.488;19.026;2023-05-19T14:15:03;100509.22;;;21.59;56.89
68107;BME280;54892;47.488;19.026;2023-05-19T14:18:06;100503.41;;;21.66;58.94
68107;BME280;54892;47.488;19.026;2023-05-19T14:21:11;100499.28;;;21.78;55.96
68107;BME280;54892;47.488;19.026;2023-05-19T14:24:14;100495.63;;;21.82;57.18
68107;BME280;54892;47.488;19.026;2023-05-19T14:27:17;100499.72;;;21.88;55.17
68107;BME280;54892;47.488;19.026;2023-05-19T14:30:20;100499.91;;;21.92;53.78
68107;BME280;54892;47.488;19.026;2023-05-19T14:33:24;100502.09;;;21.90;54.23
68107;BME280;54892;47.488;19.026;2023-05-19T14:36:28;100495.59;;;22.00;55.18
68107;BME280;54892;47.488;19.026;2023-05-19T14:39:32;100497.03;;;21.88;54.45
68107;BME280;54892;47.488;19.026;2023-05-19T14:42:35;100486.12;;;21.94;53.54
68107;BME280;54892;47.488;19.026;2023-05-19T14:45:39;100486.41;;;22.10;52.95
68107;BME280;54892;47.488;19.026;2023-05-19T14:48:42;100484.03;;;22.08;54.71
68107;BME280;54892;47.488;19.026;2023-05-19T14:51:47;100476.25;;;22.24;51.35
68107;BME280;54892;47.488;19.026;2023-05-19T14:54:50;100485.44;;;22.14;51.83
68107;BME280;54892;47.488;19.026;2023-05-19T14:57:55;100478.97;;;22.15;51.76
68107;BME280;54892;47.488;19.026;2023-05-19T15:00:58;100481.72;;;22.36;51.39
68107;BME280;54892;47.488;19.026;2023-05-19T15:04:02;100478.13;;;22.24;52.36
68107;BME280;54892;47.488;19.026;2023-05-19T15:07:07;100487.16;;;22.19;53.31
68107;BME280;54892;47.488;19.026;2023-05-19T15:10:11;100488.47;;;22.04;53.59
68107;BME280;54892;47.488;19.026;2023-05-19T15:13:14;100492.94;;;21.91;52.98
68107;BME280;54892;47.488;19.026;2023-05-19T15:16:19;100495.94;;;21.81;53.64
68107;BME280;54892;47.488;19.026;2023-05-19T15:19:23;100485.41;;;21.67;53.82
68107;BME280;54892;47.488;19.026;2023-05-19T15:22:28;100480.97;;;21.62;54.81
68107;BME280;54892;47.488;19.026;2023-05-19T15:25:31;100479.06;;;21.71;54.88
68107;BME280;54892;47.488;19.026;2023-05-19T15:28:35;100489.31;;;21.78;55.09
68107;BME280;54892;47.488;19.026;2023-05-19T15:31:38;100484.25;;;21.94;54.04
68107;BME280;54892;47.488;19.026;2023-05-19T15:34:41;100474.56;;;22.11;53.08
68107;BME280;54892;47.488;19.026;2023-05-19T15:37:46;100478.84;;;22.03;53.16
68107;BME280;54892;47.488;19.026;2023-05-19T15:40:50;100480.91;;;21.97;53.11
68107;BME280;54892;47.488;19.026;2023-05-19T15:43:53;100475.34;;;22.02;53.03
68107;BME280;54892;47.488;19.026;2023-05-19T15:46:56;100469.81;;;22.08;52.96
68107;BME280;54892;47.488;19.026;2023-05-19T15:50:00;100474.37;;;22.07;52.94
68107;BME280;54892;47.488;19.026;2023-05-19T15:53:04;100472.97;;;22.10;52.86